createdAt,value
2022-08-18T00:00:03.293Z,0.02
2022-08-18T00:01:03.362Z,0.02
2022-08-18T00:02:02.393Z,0.02
2022-08-18T00:03:07.420Z,0.02
2022-08-18T00:04:03.742Z,0.02
2022-08-18T00:05:02.863Z,0.02
2022-08-18T00:06:02.710Z,0.02
2022-08-18T00:07:03.229Z,0.02
2022-08-18T00:08:02.663Z,0.02
2022-08-18T00:09:03.200Z,0.02
2022-08-18T00:10:02.886Z,0.02
2022-08-18T00:11:02.819Z,0.01
2022-08-18T00:12:02.820Z,0.02
2022-08-18T00:13:03.231Z,0.01
2022-08-18T00:14:02.992Z,0.02
2022-08-18T00:15:02.824Z,0.02
2022-08-18T00:16:02.787Z,0.02
2022-08-18T00:17:02.570Z,0.02
2022-08-18T00:18:02.532Z,0.01
2022-08-18T00:19:07.102Z,0.03
2022-08-18T00:20:02.774Z,0.02
2022-08-18T00:21:02.781Z,0.02
2022-08-18T00:22:02.706Z,0.02
2022-08-18T00:23:02.665Z,0.02
2022-08-18T00:24:02.994Z,0.02
2022-08-18T00:25:02.996Z,0.03
2022-08-18T00:26:02.986Z,0.02
2022-08-18T00:27:03.027Z,0.02
2022-08-18T00:28:02.904Z,0.02
2022-08-18T00:29:02.853Z,0.02
2022-08-18T00:30:03.294Z,0.02
2022-08-18T00:31:03.162Z,0.02
2022-08-18T00:32:03.131Z,0.02
2022-08-18T00:33:03.166Z,0.03
2022-08-18T00:34:03.130Z,0.02
2022-08-18T00:35:03.218Z,0.02
2022-08-18T00:36:03.188Z,0.02
2022-08-18T00:37:02.945Z,0.02
2022-08-18T00:38:02.702Z,0.02
2022-08-18T00:39:03.140Z,0.02
2022-08-18T00:40:03.153Z,0.02
2022-08-18T00:41:02.697Z,0.02
2022-08-18T00:42:03.336Z,0.02
2022-08-18T00:43:04.184Z,0.02
2022-08-18T00:44:03.404Z,0.02
2022-08-18T00:45:03.646Z,0.02
2022-08-18T00:46:03.617Z,0.02
2022-08-18T00:47:02.652Z,0.02
2022-08-18T00:48:02.884Z,0.02
2022-08-18T00:49:02.832Z,0.02
2022-08-18T00:50:02.905Z,0.02
2022-08-18T00:51:02.770Z,0.02
2022-08-18T00:52:02.806Z,0.02
2022-08-18T00:53:02.902Z,0.02
2022-08-18T00:54:02.903Z,0.01
2022-08-18T00:55:02.590Z,0.02
2022-08-18T00:56:03.109Z,0.02
2022-08-18T00:57:02.848Z,0.01
2022-08-18T00:58:02.798Z,0.02
2022-08-18T00:59:02.741Z,0.02
2022-08-18T01:00:02.675Z,0.02
2022-08-18T01:01:03.150Z,0.02
2022-08-18T01:02:02.897Z,0.02
2022-08-18T01:03:02.722Z,0.03
2022-08-18T01:04:02.610Z,0.02
2022-08-18T01:05:02.731Z,0.02
2022-08-18T01:06:02.713Z,0.02
2022-08-18T01:07:02.551Z,0.02
2022-08-18T01:08:02.317Z,0.03
2022-08-18T01:09:02.640Z,0.02
2022-08-18T01:10:02.619Z,0.02
2022-08-18T01:11:02.585Z,0.02
2022-08-18T01:12:44.358Z,0.03
2022-08-18T01:13:02.600Z,0.02
2022-08-18T01:14:02.272Z,0.02
2022-08-18T01:15:02.358Z,0.02
2022-08-18T01:16:02.401Z,0.01
2022-08-18T01:17:03.134Z,0.02
2022-08-18T01:18:02.855Z,0.01
2022-08-18T01:19:02.940Z,0.02
2022-08-18T01:20:03.124Z,0.02
2022-08-18T01:21:03.115Z,0.01
2022-08-18T01:22:02.896Z,0.02
2022-08-18T01:23:02.868Z,0.02
2022-08-18T01:24:02.802Z,0.02
2022-08-18T01:25:02.549Z,0.02
2022-08-18T01:26:02.961Z,0.02
2022-08-18T01:27:03.077Z,0.02
2022-08-18T01:28:03.085Z,0.02
2022-08-18T01:29:02.975Z,0.01
2022-08-18T01:30:02.660Z,0.02
2022-08-18T01:31:02.789Z,0.02
2022-08-18T01:32:02.505Z,0.02
2022-08-18T01:33:02.472Z,0.02
2022-08-18T01:34:02.213Z,0.02
2022-08-18T01:35:02.467Z,0.02
2022-08-18T01:36:02.454Z,0.02
2022-08-18T01:37:02.688Z,0.02
2022-08-18T01:38:02.962Z,0.03
2022-08-18T01:39:03.140Z,0.02
2022-08-18T01:41:23.293Z,0.02
2022-08-18T01:41:27.101Z,0.02
2022-08-18T01:42:02.547Z,0.02
2022-08-18T01:43:02.445Z,0.02
2022-08-18T01:44:02.432Z,0.02
2022-08-18T01:45:02.411Z,0.02
2022-08-18T01:46:02.391Z,0.02
2022-08-18T01:47:02.539Z,0.02
2022-08-18T01:48:03.210Z,0.02
2022-08-18T01:49:03.214Z,0.02
2022-08-18T01:50:03.046Z,0.02
2022-08-18T01:51:02.689Z,0.02
2022-08-18T01:52:03.348Z,0.02
2022-08-18T01:53:03.033Z,0.02
2022-08-18T01:54:02.974Z,0.03
2022-08-18T01:55:02.977Z,0.02
2022-08-18T01:56:02.917Z,0.01
2022-08-18T01:57:02.761Z,0.02
2022-08-18T01:58:02.158Z,0.03
2022-08-18T01:59:02.234Z,0.02
2022-08-18T02:00:02.214Z,0.02
2022-08-18T02:01:02.528Z,0.02
2022-08-18T02:02:03.265Z,0.02
2022-08-18T02:03:03.135Z,0.02
2022-08-18T02:04:31.169Z,0.02
2022-08-18T02:05:03.244Z,0.01
2022-08-18T02:06:03.056Z,0.01
2022-08-18T02:07:04.195Z,0.02
2022-08-18T02:08:02.675Z,0.02
2022-08-18T02:09:02.747Z,0.02
2022-08-18T02:10:02.833Z,0.02
2022-08-18T02:11:02.909Z,0.02
2022-08-18T02:12:03.729Z,0.02
2022-08-18T02:13:02.797Z,0.02
2022-08-18T02:14:03.231Z,0.02
2022-08-18T02:15:03.310Z,0.02
2022-08-18T02:16:02.944Z,0.02
2022-08-18T02:17:02.965Z,0.02
2022-08-18T02:18:02.433Z,0.02
2022-08-18T02:19:02.122Z,0.01
2022-08-18T02:20:02.646Z,0.03
2022-08-18T02:21:02.645Z,0.02
2022-08-18T02:22:03.134Z,0.02
2022-08-18T02:23:03.124Z,0.02
2022-08-18T02:24:02.970Z,0.02
2022-08-18T02:25:03.046Z,0.02
2022-08-18T02:26:03.272Z,0.02
2022-08-18T02:27:03.140Z,0.02
2022-08-18T02:28:03.080Z,0.02
2022-08-18T02:29:03.282Z,0.02
2022-08-18T02:30:03.420Z,0.02
2022-08-18T02:31:03.422Z,0.02
2022-08-18T02:32:02.501Z,0.02
2022-08-18T02:33:02.497Z,0.02
2022-08-18T02:34:02.475Z,0.01
2022-08-18T02:35:02.478Z,0.02
2022-08-18T02:36:02.643Z,0.02
2022-08-18T02:37:03.076Z,0.02
2022-08-18T02:38:03.141Z,0.02
2022-08-18T02:39:02.746Z,0.02
2022-08-18T02:40:03.372Z,0.02
2022-08-18T02:41:02.822Z,0.03
2022-08-18T02:42:03.030Z,0.02
2022-08-18T02:43:03.013Z,0.02
2022-08-18T02:44:03.003Z,0.02
2022-08-18T02:45:03.063Z,0.02
2022-08-18T02:46:03.053Z,0.02
2022-08-18T02:47:03.032Z,0.02
2022-08-18T02:48:03.117Z,0.02
2022-08-18T02:49:03.602Z,0.02
2022-08-18T02:50:03.342Z,0.02
2022-08-18T02:51:03.399Z,0.02
2022-08-18T02:52:02.338Z,0.02
2022-08-18T02:53:02.296Z,0.02
2022-08-18T02:54:02.289Z,0.02
2022-08-18T02:55:02.761Z,0.01
2022-08-18T02:56:02.771Z,0.02
2022-08-18T02:57:02.814Z,0.02
2022-08-18T02:58:02.772Z,0.02
2022-08-18T02:59:02.780Z,0.02
2022-08-18T03:00:03.282Z,0.02
2022-08-18T03:01:03.246Z,0.02
2022-08-18T03:02:02.917Z,0.02
2022-08-18T03:03:02.894Z,0.03
2022-08-18T03:04:02.870Z,0.03
2022-08-18T03:05:03.537Z,0.01
2022-08-18T03:06:03.234Z,0.02
2022-08-18T03:07:03.250Z,0.01
2022-08-18T03:08:03.253Z,0.01
2022-08-18T03:09:03.221Z,0.02
2022-08-18T03:10:31.891Z,0.03
2022-08-18T03:11:03.292Z,0.02
2022-08-18T03:12:03.339Z,0.02
2022-08-18T03:13:03.408Z,0.03
2022-08-18T03:14:03.558Z,0.02
2022-08-18T03:15:03.821Z,0.01
2022-08-18T03:16:03.576Z,0.02
2022-08-18T03:17:02.682Z,0.02
2022-08-18T03:18:02.772Z,0.02
2022-08-18T03:19:03.052Z,0.02
2022-08-18T03:20:03.117Z,0.02
2022-08-18T03:21:02.515Z,0.02
2022-08-18T03:22:03.651Z,0.03
2022-08-18T03:23:05.779Z,0.01
2022-08-18T03:24:03.066Z,0.03
2022-08-18T03:25:03.709Z,0.03
2022-08-18T03:26:03.496Z,0.02
2022-08-18T03:27:03.508Z,0.02
2022-08-18T03:28:03.516Z,0.02
2022-08-18T03:29:03.749Z,0.03
2022-08-18T03:30:03.669Z,0.02
2022-08-18T03:31:03.887Z,0.02
2022-08-18T03:32:03.028Z,0.02
2022-08-18T03:33:03.241Z,0.02
2022-08-18T03:34:03.271Z,0.01
2022-08-18T03:35:03.320Z,0.02
2022-08-18T03:36:03.369Z,0.01
2022-08-18T03:37:03.860Z,0.02
2022-08-18T03:38:04.254Z,0.02
2022-08-18T03:39:03.413Z,0.02
2022-08-18T03:40:03.570Z,0.01
2022-08-18T03:41:03.412Z,0.01
2022-08-18T03:42:03.416Z,0.02
2022-08-18T03:43:03.303Z,0.02
2022-08-18T03:44:03.247Z,0.03
2022-08-18T03:45:13.439Z,0.02
2022-08-18T03:46:03.389Z,0.02
2022-08-18T03:47:03.367Z,0.02
2022-08-18T03:48:03.475Z,0.02
2022-08-18T03:49:03.479Z,0.02
2022-08-18T03:50:03.499Z,0.02
2022-08-18T03:51:05.362Z,0.02
2022-08-18T03:52:02.928Z,0.01
2022-08-18T03:53:02.744Z,0.02
2022-08-18T03:54:03.064Z,0.02
2022-08-18T03:55:03.075Z,0.02
2022-08-18T03:56:03.199Z,0.02
2022-08-18T03:57:03.197Z,0.02
2022-08-18T03:58:03.202Z,0.01
2022-08-18T03:59:02.905Z,0.02
2022-08-18T04:00:03.495Z,0.02
2022-08-18T04:01:03.624Z,0.01
2022-08-18T04:02:03.336Z,0.02
2022-08-18T04:03:03.265Z,0.02
2022-08-18T04:04:03.382Z,0.02
2022-08-18T04:05:03.499Z,0.02
2022-08-18T04:06:03.347Z,0.02
2022-08-18T04:07:03.406Z,0.02
2022-08-18T04:08:03.208Z,0.02
2022-08-18T04:09:03.624Z,0.02
2022-08-18T04:10:03.259Z,0.03
2022-08-18T04:11:03.309Z,0.02
2022-08-18T04:12:03.107Z,0.02
2022-08-18T04:13:02.962Z,0.02
2022-08-18T04:14:02.780Z,0.02
2022-08-18T04:15:02.840Z,0.02
2022-08-18T04:16:02.909Z,0.02
2022-08-18T04:17:02.778Z,0.02
2022-08-18T04:18:03.688Z,0.02
2022-08-18T04:19:02.765Z,0.02
2022-08-18T04:20:02.867Z,0.03
2022-08-18T04:21:02.620Z,0.03
2022-08-18T04:22:03.433Z,0.02
2022-08-18T04:23:03.483Z,0.03
2022-08-18T04:24:03.406Z,0.03
2022-08-18T04:25:03.605Z,0.02
2022-08-18T04:26:03.137Z,0.02
2022-08-18T04:27:03.035Z,0.03
2022-08-18T04:28:02.490Z,0.04
2022-08-18T04:29:02.687Z,0.03
2022-08-18T04:30:02.934Z,0.03
2022-08-18T04:31:02.947Z,0.03
2022-08-18T04:32:03.037Z,0.03
2022-08-18T04:33:03.115Z,0.03
2022-08-18T04:34:02.515Z,0.04
2022-08-18T04:35:03.255Z,0.02
2022-08-18T04:36:03.128Z,0.04
2022-08-18T04:37:03.294Z,0.03
2022-08-18T04:38:03.408Z,0.04
2022-08-18T04:39:02.939Z,0.04
2022-08-18T04:40:03.226Z,0.05
2022-08-18T04:41:03.043Z,0.04
2022-08-18T04:42:03.964Z,0.04
2022-08-18T04:43:03.505Z,0.04
2022-08-18T04:44:03.612Z,0.04
2022-08-18T04:45:03.806Z,0.05
2022-08-18T04:46:03.833Z,0.04
2022-08-18T04:47:03.501Z,0.05
2022-08-18T04:48:02.457Z,0.05
2022-08-18T04:49:02.737Z,0.05
2022-08-18T04:50:03.088Z,0.06
2022-08-18T04:51:02.956Z,0.05
2022-08-18T04:52:34.276Z,0.05
2022-08-18T04:53:03.598Z,0.05
2022-08-18T04:54:03.712Z,0.05
2022-08-18T04:55:03.213Z,0.05
2022-08-18T04:56:03.457Z,0.04
2022-08-18T04:57:03.718Z,0.05
2022-08-18T04:58:03.505Z,0.04
2022-08-18T04:59:03.841Z,0.04
2022-08-18T05:00:03.520Z,0.05
2022-08-18T05:01:03.332Z,0.05
2022-08-18T05:02:02.589Z,0.06
2022-08-18T05:03:02.706Z,0.06
2022-08-18T05:04:02.899Z,0.07
2022-08-18T05:05:03.022Z,0.07
2022-08-18T05:06:02.667Z,0.08
2022-08-18T05:07:01.858Z,0.08
2022-08-18T05:08:01.985Z,0.08
2022-08-18T05:09:02.210Z,0.09
2022-08-18T05:10:02.246Z,0.09
2022-08-18T05:11:04.261Z,0.09
2022-08-18T05:12:02.270Z,0.08
2022-08-18T05:13:02.424Z,0.09
2022-08-18T05:14:02.498Z,0.09
2022-08-18T05:15:02.559Z,0.09
2022-08-18T05:16:10.896Z,0.09
2022-08-18T05:17:02.784Z,0.09
2022-08-18T05:18:03.265Z,0.09
2022-08-18T05:19:03.364Z,0.10
2022-08-18T05:20:03.447Z,0.10
2022-08-18T05:21:03.296Z,0.10
2022-08-18T05:22:03.020Z,0.09
2022-08-18T05:23:02.450Z,0.10
2022-08-18T05:24:02.559Z,0.10
2022-08-18T05:25:02.763Z,0.10
2022-08-18T05:26:03.010Z,0.10
2022-08-18T05:27:02.883Z,0.09
2022-08-18T05:28:02.969Z,0.09
2022-08-18T05:29:17.597Z,0.09
2022-08-18T05:30:03.178Z,0.10
2022-08-18T05:31:03.275Z,0.10
2022-08-18T05:32:02.830Z,0.12
2022-08-18T05:33:02.577Z,0.11
2022-08-18T05:34:02.808Z,0.12
2022-08-18T05:35:02.987Z,0.12
2022-08-18T05:36:02.875Z,0.14
2022-08-18T05:37:02.989Z,0.16
2022-08-18T05:38:03.144Z,0.16
2022-08-18T05:39:03.641Z,0.17
2022-08-18T05:40:08.912Z,0.17
2022-08-18T05:41:03.559Z,0.18
2022-08-18T05:42:02.480Z,0.19
2022-08-18T05:43:02.896Z,0.19
2022-08-18T05:44:02.698Z,0.20
2022-08-18T05:45:02.900Z,0.21
2022-08-18T05:46:02.889Z,0.22
2022-08-18T05:47:03.035Z,0.22
2022-08-18T05:48:03.665Z,0.22
2022-08-18T05:49:02.921Z,0.22
2022-08-18T05:50:03.369Z,0.22
2022-08-18T05:51:03.125Z,0.22
2022-08-18T05:52:02.488Z,0.22
2022-08-18T05:53:02.612Z,0.23
2022-08-18T05:54:02.583Z,0.22
2022-08-18T05:55:02.479Z,0.23
2022-08-18T05:56:02.220Z,0.23
2022-08-18T05:57:02.465Z,0.24
2022-08-18T05:58:02.741Z,0.24
2022-08-18T05:59:02.267Z,0.24
2022-08-18T06:00:02.834Z,0.24
2022-08-18T06:01:02.620Z,0.25
2022-08-18T06:02:02.823Z,0.24
2022-08-18T06:03:03.222Z,0.26
2022-08-18T06:04:03.158Z,0.26
2022-08-18T06:05:03.213Z,0.25
2022-08-18T06:06:03.150Z,0.26
2022-08-18T06:07:02.739Z,0.26
2022-08-18T06:08:02.660Z,0.26
2022-08-18T06:09:02.580Z,0.26
2022-08-18T06:10:02.666Z,0.25
2022-08-18T06:11:02.703Z,0.26
2022-08-18T06:12:02.468Z,0.26
2022-08-18T06:13:02.676Z,0.26
2022-08-18T06:14:02.870Z,0.27
2022-08-18T06:15:05.875Z,0.26
2022-08-18T06:16:02.605Z,0.26
2022-08-18T06:17:02.868Z,0.27
2022-08-18T06:18:02.734Z,0.28
2022-08-18T06:19:03.031Z,0.28
2022-08-18T06:20:02.967Z,0.28
2022-08-18T06:21:02.973Z,0.28
2022-08-18T06:22:01.794Z,0.28
2022-08-18T06:23:02.312Z,0.28
2022-08-18T06:24:01.953Z,0.28
2022-08-18T06:25:01.984Z,0.29
2022-08-18T06:26:02.057Z,0.30
2022-08-18T06:27:02.802Z,0.30
2022-08-18T06:28:02.997Z,0.30
2022-08-18T06:29:03.085Z,0.30
2022-08-18T06:30:02.940Z,0.30
2022-08-18T06:31:02.484Z,0.31
2022-08-18T06:32:02.376Z,0.31
2022-08-18T06:33:02.550Z,0.31
2022-08-18T06:34:02.590Z,0.31
2022-08-18T06:35:02.020Z,0.32
2022-08-18T06:36:02.609Z,0.31
2022-08-18T06:37:02.546Z,0.30
2022-08-18T06:38:02.732Z,0.31
2022-08-18T06:39:02.283Z,0.30
2022-08-18T06:40:02.274Z,0.29
2022-08-18T06:41:02.378Z,0.28
2022-08-18T06:42:03.104Z,0.27
2022-08-18T06:43:03.269Z,0.27
2022-08-18T06:44:02.751Z,0.28
2022-08-18T06:45:02.734Z,0.26
2022-08-18T06:46:02.788Z,0.25
2022-08-18T06:47:02.711Z,0.23
2022-08-18T06:48:02.862Z,0.21
2022-08-18T06:49:02.868Z,0.20
2022-08-18T06:50:02.787Z,0.20
2022-08-18T06:51:02.303Z,0.19
2022-08-18T06:52:03.417Z,0.20
2022-08-18T06:53:02.705Z,0.20
2022-08-18T06:54:02.944Z,0.21
2022-08-18T06:55:03.121Z,0.22
2022-08-18T06:56:03.321Z,0.23
2022-08-18T06:57:03.200Z,0.22
2022-08-18T06:58:02.804Z,0.22
2022-08-18T06:59:02.740Z,0.21
2022-08-18T07:00:03.141Z,0.21
2022-08-18T07:01:03.229Z,0.21
2022-08-18T07:02:02.129Z,0.21
2022-08-18T07:03:02.088Z,0.21
2022-08-18T07:04:02.566Z,0.22
2022-08-18T07:05:02.075Z,0.22
2022-08-18T07:06:02.157Z,0.23
2022-08-18T07:07:02.577Z,0.24
2022-08-18T07:08:03.087Z,0.25
2022-08-18T07:09:02.789Z,0.26
2022-08-18T07:10:02.634Z,0.27
2022-08-18T07:11:02.677Z,0.26
2022-08-18T07:12:02.558Z,0.26
2022-08-18T07:13:02.399Z,0.27
2022-08-18T07:14:16.079Z,0.26
2022-08-18T07:15:02.096Z,0.26
2022-08-18T07:16:02.126Z,0.27
2022-08-18T07:17:03.039Z,0.27
2022-08-18T07:18:02.733Z,0.28
2022-08-18T07:19:03.248Z,0.28
2022-08-18T07:20:03.239Z,0.31
2022-08-18T07:21:02.668Z,0.32
2022-08-18T07:22:02.246Z,0.30
2022-08-18T07:23:02.402Z,0.29
2022-08-18T07:24:23.679Z,0.27
2022-08-18T07:25:05.300Z,0.27
2022-08-18T07:26:02.278Z,0.27
2022-08-18T07:27:03.084Z,0.32
2022-08-18T07:28:03.095Z,0.32
2022-08-18T07:29:02.610Z,0.30
2022-08-18T07:30:03.119Z,0.26
2022-08-18T07:31:16.314Z,0.26
2022-08-18T07:32:02.826Z,0.25
2022-08-18T07:33:02.301Z,0.27
2022-08-18T07:34:02.815Z,0.26
2022-08-18T07:35:02.409Z,0.30
2022-08-18T07:36:02.411Z,0.29
2022-08-18T07:37:03.056Z,0.28
2022-08-18T07:38:18.729Z,0.26
2022-08-18T07:39:02.583Z,0.29
2022-08-18T07:40:02.786Z,0.28
2022-08-18T07:41:02.990Z,0.28
2022-08-18T07:42:02.962Z,0.30
2022-08-18T07:43:02.917Z,0.28
2022-08-18T07:44:02.663Z,0.27
2022-08-18T07:45:02.871Z,0.28
2022-08-18T07:46:02.575Z,0.28
2022-08-18T07:47:02.607Z,0.28
2022-08-18T07:48:15.818Z,0.27
2022-08-18T07:49:05.432Z,0.26
2022-08-18T07:50:36.255Z,0.24
2022-08-18T07:51:06.653Z,0.22
2022-08-18T07:52:02.930Z,0.23
2022-08-18T07:53:02.944Z,0.23
2022-08-18T07:54:02.605Z,0.23
2022-08-18T07:55:02.958Z,0.24
2022-08-18T07:56:02.886Z,0.24
2022-08-18T07:57:02.940Z,0.24
2022-08-18T07:58:03.049Z,0.25
2022-08-18T07:59:02.728Z,0.26
2022-08-18T08:00:03.243Z,0.28
2022-08-18T08:01:03.090Z,0.36
2022-08-18T08:02:02.178Z,0.46
2022-08-18T08:03:02.462Z,0.49
2022-08-18T08:04:02.165Z,0.47
2022-08-18T08:05:02.274Z,0.46
2022-08-18T08:06:02.132Z,0.46
2022-08-18T08:07:23.483Z,0.45
2022-08-18T08:08:02.793Z,0.43
2022-08-18T08:09:02.959Z,0.47
2022-08-18T08:10:02.763Z,0.49
2022-08-18T08:11:02.903Z,0.49
2022-08-18T08:12:02.955Z,0.48
2022-08-18T08:13:09.270Z,0.47
2022-08-18T08:14:03.091Z,0.45
2022-08-18T08:15:02.958Z,0.45
2022-08-18T08:16:03.315Z,0.44
2022-08-18T08:17:02.692Z,0.41
2022-08-18T08:18:02.698Z,0.38
2022-08-18T08:19:02.797Z,0.39
2022-08-18T08:20:03.071Z,0.40
2022-08-18T08:21:02.886Z,0.36
2022-08-18T08:22:02.659Z,0.34
2022-08-18T08:23:02.854Z,0.32
2022-08-18T08:24:03.049Z,0.28
2022-08-18T08:25:02.695Z,0.27
2022-08-18T08:26:02.625Z,0.27
2022-08-18T08:27:03.453Z,0.28
2022-08-18T08:28:02.981Z,0.28
2022-08-18T08:29:03.144Z,0.27
2022-08-18T08:30:03.251Z,0.27
2022-08-18T08:31:25.861Z,0.30
2022-08-18T08:32:02.526Z,0.32
2022-08-18T08:33:02.853Z,0.32
2022-08-18T08:34:05.981Z,0.31
2022-08-18T08:35:02.939Z,0.32
2022-08-18T08:36:02.637Z,0.32
2022-08-18T08:37:03.122Z,0.33
2022-08-18T08:38:23.014Z,0.32
2022-08-18T08:39:03.385Z,0.32
2022-08-18T08:40:03.452Z,0.33
2022-08-18T08:41:03.144Z,0.35
2022-08-18T08:42:30.214Z,0.42
2022-08-18T08:43:02.690Z,0.48
2022-08-18T08:44:02.765Z,0.51
2022-08-18T08:45:03.116Z,0.54
2022-08-18T08:46:02.901Z,0.57
2022-08-18T08:47:03.231Z,0.61
2022-08-18T08:48:08.930Z,0.65
2022-08-18T08:49:03.184Z,0.68
2022-08-18T08:50:03.356Z,0.68
2022-08-18T08:51:03.325Z,0.66
2022-08-18T08:52:03.098Z,0.63
2022-08-18T08:53:03.133Z,0.61
2022-08-18T08:54:02.828Z,0.60
2022-08-18T08:55:03.341Z,0.60
2022-08-18T08:56:03.228Z,0.62
2022-08-18T08:57:03.391Z,0.64
2022-08-18T08:58:02.979Z,0.69
2022-08-18T08:59:03.433Z,0.72
2022-08-18T09:00:03.153Z,0.75
2022-08-18T09:01:02.966Z,0.76
2022-08-18T09:02:02.396Z,0.74
2022-08-18T09:03:02.452Z,0.72
2022-08-18T09:04:02.677Z,0.69
2022-08-18T09:05:08.466Z,0.66
2022-08-18T09:06:02.348Z,0.67
2022-08-18T09:07:02.476Z,0.63
2022-08-18T09:08:02.174Z,0.52
2022-08-18T09:09:02.410Z,0.47
2022-08-18T09:10:02.758Z,0.46
2022-08-18T09:11:02.163Z,0.50
2022-08-18T09:12:02.857Z,0.51
2022-08-18T09:13:02.381Z,0.51
2022-08-18T09:14:02.388Z,0.51
2022-08-18T09:15:02.898Z,0.55
2022-08-18T09:16:02.488Z,0.51
2022-08-18T09:17:02.944Z,0.45
2022-08-18T09:18:03.084Z,0.39
2022-08-18T09:19:02.978Z,0.34
2022-08-18T09:20:03.044Z,0.32
2022-08-18T09:21:02.983Z,0.32
2022-08-18T09:22:03.145Z,0.32
2022-08-18T09:23:03.327Z,0.31
2022-08-18T09:24:03.429Z,0.30
2022-08-18T09:25:03.191Z,0.28
2022-08-18T09:26:03.585Z,0.27
2022-08-18T09:27:02.497Z,0.27
2022-08-18T09:28:11.313Z,0.28
2022-08-18T09:29:02.596Z,0.26
2022-08-18T09:30:02.998Z,0.28
2022-08-18T09:31:02.638Z,0.26
2022-08-18T09:32:02.505Z,0.25
2022-08-18T09:33:02.972Z,0.24
2022-08-18T09:34:09.722Z,0.22
2022-08-18T09:35:02.842Z,0.22
2022-08-18T09:36:02.708Z,0.20
2022-08-18T09:37:02.967Z,0.20
2022-08-18T09:38:03.166Z,0.19
2022-08-18T09:39:03.052Z,0.20
2022-08-18T09:40:10.896Z,0.19
2022-08-18T09:41:03.911Z,0.20
2022-08-18T09:42:03.196Z,0.21
2022-08-18T09:43:02.736Z,0.21
2022-08-18T09:44:02.256Z,0.21
2022-08-18T09:45:02.727Z,0.23
2022-08-18T09:46:02.557Z,0.24
2022-08-18T09:47:03.043Z,0.26
2022-08-18T09:48:03.040Z,0.27
2022-08-18T09:49:03.059Z,0.27
2022-08-18T09:50:03.054Z,0.27
2022-08-18T09:51:03.179Z,0.26
2022-08-18T09:52:03.083Z,0.28
2022-08-18T09:53:04.653Z,0.28
2022-08-18T09:54:03.116Z,0.30
2022-08-18T09:55:03.239Z,0.31
2022-08-18T09:57:02.678Z,0.32
2022-08-18T09:58:02.565Z,0.34
2022-08-18T10:00:02.922Z,0.39
2022-08-18T10:01:02.803Z,0.43
2022-08-18T10:02:02.627Z,0.48
2022-08-18T10:03:02.469Z,0.54
2022-08-18T10:04:02.568Z,0.61
2022-08-18T10:05:02.832Z,0.69
2022-08-18T10:06:03.124Z,0.79
2022-08-18T10:07:02.451Z,0.88
2022-08-18T10:09:02.572Z,0.96
2022-08-18T10:10:02.093Z,0.92
2022-08-18T10:11:09.090Z,0.87
2022-08-18T10:12:02.820Z,0.82
2022-08-18T10:13:02.377Z,0.76
2022-08-18T10:14:02.842Z,0.73
2022-08-18T10:15:02.696Z,0.74
2022-08-18T10:16:10.808Z,0.76
2022-08-18T10:17:23.376Z,0.78
2022-08-18T10:18:02.113Z,0.80
2022-08-18T10:19:02.269Z,0.87
2022-08-18T10:20:02.549Z,0.89
2022-08-18T10:21:01.907Z,0.90
2022-08-18T10:22:02.547Z,0.95
2022-08-18T10:23:02.525Z,1.00
2022-08-18T10:25:20.814Z,0.99
2022-08-18T10:26:04.724Z,0.95
2022-08-18T10:27:02.694Z,0.97
2022-08-18T10:28:02.611Z,1.03
2022-08-18T10:29:02.601Z,1.10
2022-08-18T10:30:02.512Z,1.11
2022-08-18T10:31:06.189Z,1.16
2022-08-18T10:32:03.045Z,1.20
2022-08-18T10:33:15.143Z,1.25
2022-08-18T10:34:12.104Z,1.32
2022-08-18T10:35:02.643Z,1.36
2022-08-18T10:36:03.167Z,1.33
2022-08-18T10:37:02.816Z,1.31
2022-08-18T10:38:02.233Z,1.30
2022-08-18T10:39:02.193Z,1.28
2022-08-18T10:40:02.864Z,1.26
2022-08-18T10:42:03.162Z,1.23
2022-08-18T10:43:10.666Z,1.22
2022-08-18T10:44:15.371Z,1.23
2022-08-18T10:45:02.881Z,1.18
2022-08-18T10:47:03.588Z,1.06
2022-08-18T10:48:03.137Z,0.96
2022-08-18T10:50:03.098Z,0.86
2022-08-18T10:51:04.514Z,0.86
2022-08-18T10:52:03.132Z,0.90
2022-08-18T10:53:35.227Z,0.91
2022-08-18T10:54:02.905Z,0.84
2022-08-18T10:55:02.894Z,0.78
2022-08-18T10:56:05.169Z,0.77
2022-08-18T10:57:02.636Z,0.78
2022-08-18T10:58:02.865Z,0.79
2022-08-18T10:59:02.781Z,0.83
2022-08-18T11:00:03.143Z,0.87
2022-08-18T11:01:02.814Z,0.87
2022-08-18T11:02:02.669Z,0.84
2022-08-18T11:03:30.029Z,0.83
2022-08-18T11:04:11.697Z,0.83
2022-08-18T11:05:03.144Z,0.79
2022-08-18T11:06:03.574Z,0.77
2022-08-18T11:07:02.911Z,0.78
2022-08-18T11:08:02.527Z,0.77
2022-08-18T11:09:02.346Z,0.78
2022-08-18T11:10:28.235Z,0.78
2022-08-18T11:11:34.086Z,0.77
2022-08-18T11:12:02.436Z,0.77
2022-08-18T11:13:08.868Z,0.79
2022-08-18T11:14:02.654Z,0.83
2022-08-18T11:15:23.472Z,0.87
2022-08-18T11:16:03.026Z,0.92
2022-08-18T11:17:02.955Z,0.96
2022-08-18T11:18:02.432Z,1.00
2022-08-18T11:19:02.143Z,1.01
2022-08-18T11:20:02.520Z,1.01
2022-08-18T11:21:02.638Z,0.98
2022-08-18T11:22:02.489Z,0.93
2022-08-18T11:23:02.294Z,0.89
2022-08-18T11:24:02.432Z,0.88
2022-08-18T11:25:03.226Z,0.88
2022-08-18T11:26:02.256Z,0.88
2022-08-18T11:27:02.688Z,0.90
2022-08-18T11:28:02.906Z,0.92
2022-08-18T11:29:02.466Z,0.92
2022-08-18T11:30:03.034Z,0.94
2022-08-18T11:31:02.694Z,0.98
2022-08-18T11:32:02.787Z,1.02
2022-08-18T11:33:03.336Z,1.07
2022-08-18T11:34:02.326Z,1.16
2022-08-18T11:35:02.555Z,1.23
2022-08-18T11:36:02.792Z,1.20
2022-08-18T11:37:02.880Z,1.18
2022-08-18T11:38:02.300Z,1.18
2022-08-18T11:39:02.483Z,1.20
2022-08-18T11:40:02.828Z,1.22
2022-08-18T11:41:09.126Z,1.25
2022-08-18T11:42:02.856Z,1.28
2022-08-18T11:43:02.680Z,1.32
2022-08-18T11:44:02.950Z,1.37
2022-08-18T11:45:02.804Z,1.40
2022-08-18T11:46:02.870Z,1.45
2022-08-18T11:47:02.469Z,1.45
2022-08-18T11:48:03.478Z,1.44
2022-08-18T11:49:04.484Z,1.38
2022-08-18T11:50:04.426Z,1.31
2022-08-18T11:51:03.215Z,1.30
2022-08-18T11:52:03.744Z,1.34
2022-08-18T11:53:03.753Z,1.38
2022-08-18T11:54:03.376Z,1.47
2022-08-18T11:55:16.834Z,1.57
2022-08-18T11:56:03.806Z,1.68
2022-08-18T11:57:03.712Z,1.43
2022-08-18T11:58:02.411Z,1.48
2022-08-18T11:59:02.923Z,1.55
2022-08-18T12:00:02.926Z,1.63
2022-08-18T12:01:03.435Z,1.69
2022-08-18T12:02:02.826Z,1.31
2022-08-18T12:03:02.620Z,1.31
2022-08-18T12:04:02.674Z,1.34
2022-08-18T12:05:03.208Z,1.16
2022-08-18T12:06:03.019Z,1.04
2022-08-18T12:07:04.466Z,0.99
2022-08-18T12:08:06.355Z,0.99
2022-08-18T12:09:02.524Z,1.00
2022-08-18T12:10:17.888Z,1.05
2022-08-18T12:11:02.942Z,1.07
2022-08-18T12:12:02.564Z,1.04
2022-08-18T12:13:02.126Z,1.00
2022-08-18T12:14:30.163Z,0.95
2022-08-18T12:16:02.010Z,0.90
2022-08-18T12:17:02.092Z,0.88
2022-08-18T12:18:02.904Z,0.87
2022-08-18T12:19:03.091Z,0.86
2022-08-18T12:20:02.996Z,0.87
2022-08-18T12:21:03.251Z,0.89
2022-08-18T12:23:02.080Z,0.94
2022-08-18T12:24:02.563Z,0.95
2022-08-18T12:25:01.902Z,0.98
2022-08-18T12:26:02.221Z,1.04
2022-08-18T12:27:02.307Z,1.11
2022-08-18T12:28:02.660Z,1.20
2022-08-18T12:29:03.026Z,1.25
2022-08-18T12:30:02.884Z,1.31
2022-08-18T12:31:03.020Z,1.32
2022-08-18T12:32:02.518Z,1.32
2022-08-18T12:33:05.845Z,1.31
2022-08-18T12:34:02.711Z,1.28
2022-08-18T12:35:08.993Z,1.27
2022-08-18T12:36:04.133Z,1.26
2022-08-18T12:37:02.739Z,1.28
2022-08-18T12:38:04.903Z,1.28
2022-08-18T12:39:02.645Z,1.32
2022-08-18T12:40:02.663Z,1.34
2022-08-18T12:41:03.051Z,1.35
2022-08-18T12:42:02.675Z,1.35
2022-08-18T12:43:02.784Z,1.33
2022-08-18T12:44:02.139Z,1.29
2022-08-18T12:45:02.282Z,1.26
2022-08-18T12:46:02.344Z,1.24
2022-08-18T12:47:02.685Z,1.26
2022-08-18T12:48:04.325Z,1.25
2022-08-18T12:49:03.329Z,1.32
2022-08-18T12:50:03.157Z,1.42
2022-08-18T12:51:05.652Z,1.47
2022-08-18T12:52:03.583Z,1.53
2022-08-18T12:53:02.731Z,1.58
2022-08-18T12:54:02.803Z,1.46
2022-08-18T12:55:03.263Z,1.54
2022-08-18T12:56:02.595Z,1.40
2022-08-18T12:57:02.519Z,1.37
2022-08-18T12:58:03.023Z,1.43
2022-08-18T12:59:04.206Z,1.43
2022-08-18T13:00:04.201Z,1.35
2022-08-18T13:01:03.912Z,1.32
2022-08-18T13:02:03.093Z,1.30
2022-08-18T13:03:02.943Z,1.24
2022-08-18T13:05:02.875Z,1.22
2022-08-18T13:06:03.442Z,1.15
2022-08-18T13:07:05.698Z,1.09
2022-08-18T13:08:04.538Z,1.07
2022-08-18T13:09:02.543Z,1.09
2022-08-18T13:10:02.365Z,1.14
2022-08-18T13:11:14.710Z,1.24
2022-08-18T13:12:02.821Z,1.30
2022-08-18T13:13:02.965Z,1.34
2022-08-18T13:14:03.272Z,1.51
2022-08-18T13:15:02.808Z,1.46
2022-08-18T13:16:03.421Z,1.47
2022-08-18T13:17:03.142Z,1.43
2022-08-18T13:18:02.433Z,1.44
2022-08-18T13:19:02.631Z,1.47
2022-08-18T13:20:02.833Z,1.42
2022-08-18T13:21:02.738Z,1.48
2022-08-18T13:22:02.280Z,1.50
2022-08-18T13:23:02.792Z,1.28
2022-08-18T13:24:02.858Z,1.24
2022-08-18T13:25:03.894Z,1.20
2022-08-18T13:26:03.219Z,1.20
2022-08-18T13:27:03.215Z,1.30
2022-08-18T13:28:03.190Z,1.24